Nearby METAR Reports

 

KIAG - Niagara Falls, New York, USA
Distance from station: W 13mi, 20km
Updated: Wed, 16-Jun-2021 10:53pm EDT
Clear
Clear
 Wind from calm
Wind: Calm
Temperature: 57°F , 14°C
Dew Point: 39°F , 4°C
Humidity: 51%
Barometer: 30.00 inHg , 1015.9 hPa
Clouds: Clear
Visibility: 10 miles , 16 km
2021/06/17 02:53 KIAG 170253Z 00000KT 10SM CLR 14/04 A3000 RMK AO2 SLP159 T01390039 50008 $
KBUF - Buffalo/Cheektow, New York, USA
Distance from station: S 15mi, 24km
Updated: Wed, 16-Jun-2021 10:54pm EDT
Few Clouds
Few Clouds
 Wind from N
Wind: N 3 mph , 6 km/h
Temperature: 59°F , 15°C
Dew Point: 37°F , 3°C
Humidity: 45%
Barometer: 30.01 inHg , 1016.3 hPa
Clouds: Few Clouds
Visibility: 10 miles , 16 km
Cloud details: Few Clouds 24000 ft
2021/06/17 02:54 KBUF 170254Z 36003KT 10SM FEW240 15/03 A3001 RMK AO2 SLP161 T01500028 51008
 
CYSN - St. Catharines A, Ontario, Canada
Distance from station: W 24mi, 39km
Updated: Wed, 16-Jun-2021 9:00pm EDT
NOT Current
Few Clouds
Few Clouds
 Wind from N
Wind: N 7 mph , 11 km/h
Temperature: 61°F , 16°C
Dew Point: 41°F , 5°C
Humidity: 48%
Barometer: 29.98 inHg , 1015.2 hPa
Clouds: Few Clouds
Visibility: 15 miles , 24 km
Cloud details: Few Clouds 18000 ft
2021/06/17 01:00 CYSN 170100Z 01006KT 15SM FEW180 16/05 A2998 RMK CI2 LAST STFD OBS/NEXT 171100Z SLP153 DENSITY ALT 400FT
CWWZ - Port Weller (mar, Ontario, Canada
Distance from station: WNW 28mi, 44km
Updated: Wed, 16-Jun-2021 11:00pm EDT

 Wind from NNW
Wind: NNW 9 mph , 15 km/h
Temperature: 61°F , 16°C
Dew Point: 48°F , 9°C
Humidity: 63%
2021/06/17 03:00 CWWZ 170300Z AUTO 34008KT 16/09 RMK AO1 SLP162 T01600089 51009
 
CWPC - Port Colborne(Au, Ontario, Canada
Distance from station: SW 35mi, 56km
Updated: Wed, 16-Jun-2021 11:00pm EDT

 Wind from NNE
Wind: NNE 6 mph , 9 km/h
Temperature: 61°F , 16°C
Dew Point: 36°F , 2°C
Humidity: 39%
2021/06/17 03:00 CWPC 170300Z AUTO 03005KT 16/02 RMK AO1 SLP169 T01610017 52010
CXVN - Vineland (au8), Ontario, Canada
Distance from station: W 36mi, 58km
Updated: Wed, 16-Jun-2021 11:00pm EDT

 Wind from W
Wind: W 1 mph , 2 km/h
Temperature: 55°F , 13°C
Dew Point: 45°F , 7°C
Humidity: 67%
2021/06/17 03:00 CXVN 170300Z AUTO 26001KT 13/07 RMK AO1 SLP156 T01330071 51010
 
CYTZ - Toronto Il Vor, Ontario, Canada
Distance from station: NW 49mi, 79km
Updated: Wed, 16-Jun-2021 11:00pm EDT
Clear
Clear
 Wind from NW
Wind: NW 6 mph , 9 km/h
Temperature: 63°F , 17°C
Dew Point: 36°F , 2°C
Humidity: 37%
Barometer: 30.00 inHg , 1015.9 hPa
Clouds: Clear
Visibility: 9 miles , 14 km
2021/06/17 03:00 CYTZ 170300Z AUTO 32005KT 9SM CLR 17/02 A3000 RMK SLP160 DENSITY ALT 500FT
KROC - Rochester, New York, USA
Distance from station: E 51mi, 81km
Updated: Wed, 16-Jun-2021 10:54pm EDT
Few Clouds
Few Clouds
 Wind from W
Wind: W 5 mph , 7 km/h
Temperature: 55°F , 13°C
Dew Point: 37°F , 3°C
Humidity: 51%
Barometer: 30.00 inHg , 1015.9 hPa
Clouds: Few Clouds
Visibility: 10 miles , 16 km
Cloud details: Few Clouds 18000 ft
2021/06/17 02:54 KROC 170254Z 27004KT 10SM FEW180 13/03 A3000 RMK AO2 SLP161 T01330028 53011
 
CXTO - Toronto City, Ontario, Canada
Distance from station: NW 51mi, 82km
Updated: Wed, 16-Jun-2021 11:00pm EDT

 
Temperature: 59°F , 15°C
Dew Point: 34°F , 1°C
Humidity: 39%
2021/06/17 03:00 CXTO 170300Z AUTO 15/01 RMK AO1 SLP162 T01450012 51009
CYOO - Oshawa, Ontario, Canada
Distance from station: NNW 54mi, 87km
Updated: Wed, 16-Jun-2021 11:00pm EDT
Clear
Clear
 Wind from N
Wind: N 3 mph , 6 km/h
Temperature: 54°F , 12°C
Dew Point: 39°F , 4°C
Humidity: 58%
Barometer: 29.99 inHg , 1015.6 hPa
Clouds: Clear
Visibility: 9 miles , 14 km
2021/06/17 03:00 CYOO 170300Z AUTO 35003KT 9SM CLR 12/04 A2999 RMK SLP159
 
KDKK - Dunkirk, New York, USA
Distance from station: SW 54mi, 87km
Updated: Wed, 16-Jun-2021 10:53pm EDT
Clear
Clear
 Wind from WNW
Wind: WNW 7 mph , 11 km/h
Temperature: 63°F , 17°C
Dew Point: 46°F , 8°C
Humidity: 56%
Barometer: 30.01 inHg , 1016.3 hPa
Clouds: Clear
Visibility: 10 miles , 16 km
2021/06/17 02:53 KDKK 170253Z AUTO 30006KT 10SM CLR 17/08 A3001 RMK AO2 SLP161 T01720078 52004 $
CWWB - Burlington Piers, Ontario, Canada
Distance from station: W 56mi, 91km
Updated: Wed, 16-Jun-2021 11:00pm EDT

 Wind from WNW
Wind: WNW 7 mph , 11 km/h
Temperature: 61°F , 16°C
Dew Point: 37°F , 3°C
Humidity: 42%
2021/06/17 03:00 CWWB 170300Z AUTO 30006KT 16/03 RMK AO1 SLP163 T01640026 52011
 
CYYZ - Toronto/Pearson, Ontario, Canada
Distance from station: NW 59mi, 95km
Updated: Wed, 16-Jun-2021 11:00pm EDT
Clear
Clear
 Wind from NW
Wind: NW 8 mph , 13 km/h
Temperature: 59°F , 15°C
Dew Point: 34°F , 1°C
Humidity: 39%
Barometer: 30.00 inHg , 1015.9 hPa
Clouds: Clear
Visibility: 15 miles , 24 km
2021/06/17 03:00 CYYZ 170300Z 32007KT 15SM SKC 15/01 A3000 RMK SLP162 DENSITY ALT 600FT
CWNC - Cobourg (mars), Ontario, Canada
Distance from station: NNE 61mi, 98km
Updated: Wed, 16-Jun-2021 11:00pm EDT

 Wind from NNW
Wind: NNW 3 mph , 6 km/h
Temperature: 57°F , 14°C
Dew Point: 37°F , 3°C
Humidity: 48%
2021/06/17 03:00 CWNC 170300Z AUTO 33003KT 14/03 RMK AO1 SLP149 T01400031 51011
 
CXHM - Hamilton Rbg Cs, Ontario, Canada
Distance from station: W 62mi, 100km
Updated: Wed, 16-Jun-2021 11:00pm EDT

 Wind from NW
Wind: NW 3 mph , 6 km/h
Temperature: 57°F , 14°C
Dew Point: 36°F , 2°C
Humidity: 44%
2021/06/17 03:00 CXHM 170300Z AUTO 31003KT 14/02 RMK AO1 SLP163 T01400020 51008
CYHM - Hamilton Airport, Ontario, Canada
Distance from station: W 63mi, 101km
Updated: Wed, 16-Jun-2021 11:00pm EDT
Clear
Clear
 Wind from WNW
Wind: WNW 7 mph , 11 km/h
Temperature: 54°F , 12°C
Dew Point: 34°F , 1°C
Humidity: 47%
Barometer: 30.02 inHg , 1016.6 hPa
Clouds: Clear
Visibility: 15 miles , 24 km
2021/06/17 03:00 CYHM 170300Z 30006KT 15SM SKC 12/01 A3002 RMK SLP167
 
KDSV - Dansville, New York, USA
Distance from station: SE 63mi, 102km
Updated: Wed, 16-Jun-2021 10:54pm EDT
Clear
Clear
 Wind from SSE
Wind: SSE 3 mph , 6 km/h
Temperature: 52°F , 11°C
Dew Point: 45°F , 7°C
Humidity: 77%
Barometer: 30.01 inHg , 1016.3 hPa
Clouds: Clear
Visibility: 10 miles , 16 km
2021/06/17 02:54 KDSV 170254Z AUTO 15003KT 10SM CLR 11/07 A3001 RMK AO2 SLP172 T01110067 51012
KOLE - Olean, New York, USA
Distance from station: SSE 65mi, 105km
Updated: Wed, 16-Jun-2021 10:55pm EDT
Clear
Clear
 Wind from calm
Wind: Calm
Temperature: 50°F , 10°C
Dew Point: 37°F , 3°C
Humidity: 62%
Barometer: 30.03 inHg , 1016.9 hPa
Clouds: Clear
Visibility: 10 miles , 16 km
2021/06/17 02:55 KOLE 170255Z AUTO 00000KT 10SM CLR 10/03 A3003 RMK AO2